sensor_id;sensor_type;location;lat;lon;timestamp;P1;durP1;ratioP1;P2;durP2;ratioP2
62338;SDS011;48368;53.406;6.214;2022-09-09T00:03:44;14.70;;;10.80;;
62338;SDS011;48368;53.406;6.214;2022-09-09T00:06:19;14.93;;;11.57;;
62338;SDS011;48368;53.406;6.214;2022-09-09T00:08:54;13.77;;;10.85;;
62338;SDS011;48368;53.406;6.214;2022-09-09T00:11:27;15.57;;;10.93;;
62338;SDS011;48368;53.406;6.214;2022-09-09T00:14:02;13.60;;;11.00;;
62338;SDS011;48368;53.406;6.214;2022-09-09T00:16:34;15.20;;;11.15;;
62338;SDS011;48368;53.406;6.214;2022-09-09T00:21:43;16.52;;;11.15;;
62338;SDS011;48368;53.406;6.214;2022-09-09T00:27:29;16.42;;;10.45;;
62338;SDS011;48368;53.406;6.214;2022-09-09T00:32:39;12.60;;;10.55;;
62338;SDS011;48368;53.406;6.214;2022-09-09T00:35:14;14.80;;;10.60;;
62338;SDS011;48368;53.406;6.214;2022-09-09T00:37:46;17.05;;;10.82;;
62338;SDS011;48368;53.406;6.214;2022-09-09T00:40:26;15.30;;;10.45;;
62338;SDS011;48368;53.406;6.214;2022-09-09T00:43:12;15.27;;;10.35;;
62338;SDS011;48368;53.406;6.214;2022-09-09T00:48:23;14.55;;;10.35;;
62338;SDS011;48368;53.406;6.214;2022-09-09T00:51:05;16.00;;;10.07;;
62338;SDS011;48368;53.406;6.214;2022-09-09T00:53:51;14.27;;;10.15;;
62338;SDS011;48368;53.406;6.214;2022-09-09T00:56:23;13.68;;;10.50;;
62338;SDS011;48368;53.406;6.214;2022-09-09T00:59:01;14.63;;;9.82;;
62338;SDS011;48368;53.406;6.214;2022-09-09T01:01:53;14.48;;;9.75;;
62338;SDS011;48368;53.406;6.214;2022-09-09T01:04:22;19.35;;;10.45;;
62338;SDS011;48368;53.406;6.214;2022-09-09T01:07:00;14.43;;;10.32;;
62338;SDS011;48368;53.406;6.214;2022-09-09T01:14:57;15.35;;;10.60;;
62338;SDS011;48368;53.406;6.214;2022-09-09T01:17:44;13.73;;;10.07;;
62338;SDS011;48368;53.406;6.214;2022-09-09T01:20:25;15.57;;;10.48;;
62338;SDS011;48368;53.406;6.214;2022-09-09T01:25:29;12.85;;;10.73;;
62338;SDS011;48368;53.406;6.214;2022-09-09T01:28:25;20.08;;;11.02;;
62338;SDS011;48368;53.406;6.214;2022-09-09T01:30:53;14.73;;;10.18;;
62338;SDS011;48368;53.406;6.214;2022-09-09T01:33:20;18.17;;;11.00;;
62338;SDS011;48368;53.406;6.214;2022-09-09T01:35:48;15.10;;;10.43;;
62338;SDS011;48368;53.406;6.214;2022-09-09T01:38:20;15.63;;;11.02;;
62338;SDS011;48368;53.406;6.214;2022-09-09T01:40:47;18.75;;;11.23;;
62338;SDS011;48368;53.406;6.214;2022-09-09T01:43:14;16.35;;;11.02;;
62338;SDS011;48368;53.406;6.214;2022-09-09T01:45:40;15.25;;;10.48;;
62338;SDS011;48368;53.406;6.214;2022-09-09T01:48:07;13.00;;;10.27;;
62338;SDS011;48368;53.406;6.214;2022-09-09T01:50:33;16.08;;;11.32;;
62338;SDS011;48368;53.406;6.214;2022-09-09T01:52:59;14.57;;;11.18;;
62338;SDS011;48368;53.406;6.214;2022-09-09T01:55:31;18.23;;;11.07;;
62338;SDS011;48368;53.406;6.214;2022-09-09T01:58:04;14.63;;;10.65;;
62338;SDS011;48368;53.406;6.214;2022-09-09T02:01:13;19.17;;;10.95;;
62338;SDS011;48368;53.406;6.214;2022-09-09T02:03:58;17.67;;;10.80;;
62338;SDS011;48368;53.406;6.214;2022-09-09T02:06:36;14.95;;;11.07;;
62338;SDS011;48368;53.406;6.214;2022-09-09T02:09:05;14.57;;;10.77;;
62338;SDS011;48368;53.406;6.214;2022-09-09T02:11:32;15.57;;;10.70;;
62338;SDS011;48368;53.406;6.214;2022-09-09T02:14:10;16.30;;;10.95;;
62338;SDS011;48368;53.406;6.214;2022-09-09T02:16:42;14.50;;;12.00;;
62338;SDS011;48368;53.406;6.214;2022-09-09T02:19:14;17.63;;;10.93;;
62338;SDS011;48368;53.406;6.214;2022-09-09T02:21:52;15.55;;;10.45;;
62338;SDS011;48368;53.406;6.214;2022-09-09T02:24:21;13.82;;;10.35;;
62338;SDS011;48368;53.406;6.214;2022-09-09T02:26:48;14.85;;;10.20;;
62338;SDS011;48368;53.406;6.214;2022-09-09T02:29:18;14.18;;;10.27;;
62338;SDS011;48368;53.406;6.214;2022-09-09T02:31:48;15.80;;;11.20;;
62338;SDS011;48368;53.406;6.214;2022-09-09T02:34:15;13.10;;;9.93;;
62338;SDS011;48368;53.406;6.214;2022-09-09T02:36:45;13.52;;;9.93;;
62338;SDS011;48368;53.406;6.214;2022-09-09T02:39:11;15.50;;;10.95;;
62338;SDS011;48368;53.406;6.214;2022-09-09T02:41:39;16.38;;;10.13;;
62338;SDS011;48368;53.406;6.214;2022-09-09T02:44:13;13.27;;;10.82;;
62338;SDS011;48368;53.406;6.214;2022-09-09T02:54:27;15.55;;;10.52;;
62338;SDS011;48368;53.406;6.214;2022-09-09T02:57:02;16.13;;;10.82;;
62338;SDS011;48368;53.406;6.214;2022-09-09T02:59:44;14.27;;;10.10;;
62338;SDS011;48368;53.406;6.214;2022-09-09T03:02:11;14.02;;;11.02;;
62338;SDS011;48368;53.406;6.214;2022-09-09T03:04:38;14.57;;;10.40;;
62338;SDS011;48368;53.406;6.214;2022-09-09T03:07:04;15.77;;;10.15;;
62338;SDS011;48368;53.406;6.214;2022-09-09T03:09:30;16.67;;;10.07;;
62338;SDS011;48368;53.406;6.214;2022-09-09T03:11:57;14.05;;;9.55;;
62338;SDS011;48368;53.406;6.214;2022-09-09T03:14:23;13.15;;;10.15;;
62338;SDS011;48368;53.406;6.214;2022-09-09T03:16:50;13.45;;;9.10;;
62338;SDS011;48368;53.406;6.214;2022-09-09T03:19:16;15.60;;;10.18;;
62338;SDS011;48368;53.406;6.214;2022-09-09T03:21:43;15.75;;;10.30;;
62338;SDS011;48368;53.406;6.214;2022-09-09T03:24:10;17.50;;;10.77;;
62338;SDS011;48368;53.406;6.214;2022-09-09T03:26:36;12.73;;;10.27;;
62338;SDS011;48368;53.406;6.214;2022-09-09T03:29:02;14.75;;;10.48;;
62338;SDS011;48368;53.406;6.214;2022-09-09T03:31:31;11.88;;;9.80;;
62338;SDS011;48368;53.406;6.214;2022-09-09T03:33:58;12.73;;;10.52;;
62338;SDS011;48368;53.406;6.214;2022-09-09T03:36:24;14.27;;;10.23;;
62338;SDS011;48368;53.406;6.214;2022-09-09T03:38:51;12.60;;;10.07;;
62338;SDS011;48368;53.406;6.214;2022-09-09T03:41:18;12.75;;;9.27;;
62338;SDS011;48368;53.406;6.214;2022-09-09T03:43:44;13.75;;;9.85;;
62338;SDS011;48368;53.406;6.214;2022-09-09T03:46:09;13.75;;;9.93;;
62338;SDS011;48368;53.406;6.214;2022-09-09T03:48:35;15.25;;;10.07;;
62338;SDS011;48368;53.406;6.214;2022-09-09T03:51:01;12.45;;;9.35;;
62338;SDS011;48368;53.406;6.214;2022-09-09T03:53:28;14.77;;;9.90;;
62338;SDS011;48368;53.406;6.214;2022-09-09T03:55:55;13.02;;;9.48;;
62338;SDS011;48368;53.406;6.214;2022-09-09T03:58:24;15.45;;;9.18;;
62338;SDS011;48368;53.406;6.214;2022-09-09T04:00:55;14.95;;;9.73;;
62338;SDS011;48368;53.406;6.214;2022-09-09T04:03:28;13.57;;;10.57;;
62338;SDS011;48368;53.406;6.214;2022-09-09T04:05:55;14.95;;;10.57;;
62338;SDS011;48368;53.406;6.214;2022-09-09T04:08:22;14.20;;;10.13;;
62338;SDS011;48368;53.406;6.214;2022-09-09T04:10:50;14.27;;;10.68;;
62338;SDS011;48368;53.406;6.214;2022-09-09T04:13:17;15.18;;;10.55;;
62338;SDS011;48368;53.406;6.214;2022-09-09T04:15:43;15.70;;;10.18;;
62338;SDS011;48368;53.406;6.214;2022-09-09T04:18:10;13.73;;;10.02;;
62338;SDS011;48368;53.406;6.214;2022-09-09T04:20:37;15.43;;;10.60;;
62338;SDS011;48368;53.406;6.214;2022-09-09T04:23:03;13.18;;;10.23;;
62338;SDS011;48368;53.406;6.214;2022-09-09T04:25:29;15.63;;;10.07;;
62338;SDS011;48368;53.406;6.214;2022-09-09T04:27:55;16.50;;;10.93;;
62338;SDS011;48368;53.406;6.214;2022-09-09T04:30:22;16.75;;;10.98;;
62338;SDS011;48368;53.406;6.214;2022-09-09T04:32:48;16.75;;;11.10;;
62338;SDS011;48368;53.406;6.214;2022-09-09T04:35:14;17.25;;;10.93;;
62338;SDS011;48368;53.406;6.214;2022-09-09T04:37:39;15.77;;;11.38;;
62338;SDS011;48368;53.406;6.214;2022-09-09T04:40:06;15.48;;;10.00;;
62338;SDS011;48368;53.406;6.214;2022-09-09T04:42:37;18.20;;;11.40;;
62338;SDS011;48368;53.406;6.214;2022-09-09T04:45:04;19.83;;;11.55;;
62338;SDS011;48368;53.406;6.214;2022-09-09T04:47:31;16.38;;;11.43;;
62338;SDS011;48368;53.406;6.214;2022-09-09T04:49:57;15.20;;;10.93;;
62338;SDS011;48368;53.406;6.214;2022-09-09T04:52:24;17.08;;;11.68;;
62338;SDS011;48368;53.406;6.214;2022-09-09T04:54:49;20.85;;;11.27;;
62338;SDS011;48368;53.406;6.214;2022-09-09T04:57:15;16.27;;;10.95;;
62338;SDS011;48368;53.406;6.214;2022-09-09T04:59:40;16.42;;;11.18;;
62338;SDS011;48368;53.406;6.214;2022-09-09T05:02:06;16.85;;;11.65;;
62338;SDS011;48368;53.406;6.214;2022-09-09T05:04:32;18.50;;;11.05;;
62338;SDS011;48368;53.406;6.214;2022-09-09T05:06:58;16.35;;;11.38;;
62338;SDS011;48368;53.406;6.214;2022-09-09T05:09:24;16.08;;;11.10;;
62338;SDS011;48368;53.406;6.214;2022-09-09T05:11:50;16.35;;;10.98;;
62338;SDS011;48368;53.406;6.214;2022-09-09T05:14:16;15.77;;;10.50;;
62338;SDS011;48368;53.406;6.214;2022-09-09T05:16:44;15.07;;;10.18;;
62338;SDS011;48368;53.406;6.214;2022-09-09T05:19:10;16.33;;;10.82;;
62338;SDS011;48368;53.406;6.214;2022-09-09T05:21:36;16.55;;;10.90;;
62338;SDS011;48368;53.406;6.214;2022-09-09T05:24:02;15.63;;;10.98;;
62338;SDS011;48368;53.406;6.214;2022-09-09T05:26:28;14.95;;;10.35;;
62338;SDS011;48368;53.406;6.214;2022-09-09T05:28:54;14.25;;;10.10;;
62338;SDS011;48368;53.406;6.214;2022-09-09T05:31:20;13.60;;;10.35;;
62338;SDS011;48368;53.406;6.214;2022-09-09T05:33:46;16.70;;;10.32;;
62338;SDS011;48368;53.406;6.214;2022-09-09T05:36:18;16.08;;;10.25;;
62338;SDS011;48368;53.406;6.214;2022-09-09T05:38:45;15.95;;;10.82;;
62338;SDS011;48368;53.406;6.214;2022-09-09T05:41:12;17.58;;;10.48;;
62338;SDS011;48368;53.406;6.214;2022-09-09T05:43:40;18.15;;;11.25;;
62338;SDS011;48368;53.406;6.214;2022-09-09T05:46:09;15.63;;;10.23;;
62338;SDS011;48368;53.406;6.214;2022-09-09T05:48:37;15.60;;;10.60;;
62338;SDS011;48368;53.406;6.214;2022-09-09T05:51:05;16.10;;;9.60;;
62338;SDS011;48368;53.406;6.214;2022-09-09T05:53:33;16.85;;;10.27;;
62338;SDS011;48368;53.406;6.214;2022-09-09T05:56:03;16.83;;;10.32;;
62338;SDS011;48368;53.406;6.214;2022-09-09T05:58:34;15.00;;;10.07;;
62338;SDS011;48368;53.406;6.214;2022-09-09T06:01:03;17.15;;;10.90;;
62338;SDS011;48368;53.406;6.214;2022-09-09T06:03:30;15.38;;;10.77;;
62338;SDS011;48368;53.406;6.214;2022-09-09T06:05:57;15.82;;;10.10;;
62338;SDS011;48368;53.406;6.214;2022-09-09T06:08:24;16.67;;;10.52;;
62338;SDS011;48368;53.406;6.214;2022-09-09T06:10:50;16.77;;;10.43;;
62338;SDS011;48368;53.406;6.214;2022-09-09T06:13:17;15.07;;;11.23;;
62338;SDS011;48368;53.406;6.214;2022-09-09T06:15:52;17.23;;;11.13;;
62338;SDS011;48368;53.406;6.214;2022-09-09T06:18:18;18.20;;;11.38;;
62338;SDS011;48368;53.406;6.214;2022-09-09T06:20:57;15.65;;;10.73;;
62338;SDS011;48368;53.406;6.214;2022-09-09T06:23:25;15.73;;;11.10;;
62338;SDS011;48368;53.406;6.214;2022-09-09T06:25:52;17.02;;;11.10;;
62338;SDS011;48368;53.406;6.214;2022-09-09T06:28:25;16.58;;;11.13;;
62338;SDS011;48368;53.406;6.214;2022-09-09T06:30:56;16.70;;;11.18;;
62338;SDS011;48368;53.406;6.214;2022-09-09T06:33:23;16.00;;;10.88;;
62338;SDS011;48368;53.406;6.214;2022-09-09T06:35:52;18.80;;;11.23;;
62338;SDS011;48368;53.406;6.214;2022-09-09T06:38:18;15.45;;;11.25;;
62338;SDS011;48368;53.406;6.214;2022-09-09T06:40:53;17.25;;;11.43;;
62338;SDS011;48368;53.406;6.214;2022-09-09T06:43:21;14.80;;;11.15;;
62338;SDS011;48368;53.406;6.214;2022-09-09T06:45:54;17.05;;;11.13;;
62338;SDS011;48368;53.406;6.214;2022-09-09T06:48:29;16.33;;;10.82;;
62338;SDS011;48368;53.406;6.214;2022-09-09T06:53:30;19.92;;;11.65;;
62338;SDS011;48368;53.406;6.214;2022-09-09T06:58:28;16.42;;;10.40;;
62338;SDS011;48368;53.406;6.214;2022-09-09T07:01:06;15.95;;;10.85;;
62338;SDS011;48368;53.406;6.214;2022-09-09T07:03:32;18.55;;;11.27;;
62338;SDS011;48368;53.406;6.214;2022-09-09T07:05:58;17.10;;;11.45;;
62338;SDS011;48368;53.406;6.214;2022-09-09T07:08:25;16.83;;;11.32;;
62338;SDS011;48368;53.406;6.214;2022-09-09T07:10:51;19.67;;;11.45;;
62338;SDS011;48368;53.406;6.214;2022-09-09T07:13:24;16.63;;;11.20;;
62338;SDS011;48368;53.406;6.214;2022-09-09T07:15:50;16.50;;;10.98;;
62338;SDS011;48368;53.406;6.214;2022-09-09T07:18:17;17.33;;;11.90;;
62338;SDS011;48368;53.406;6.214;2022-09-09T07:20:51;15.13;;;11.38;;
62338;SDS011;48368;53.406;6.214;2022-09-09T07:23:18;18.08;;;12.13;;
62338;SDS011;48368;53.406;6.214;2022-09-09T07:25:44;16.42;;;11.13;;
62338;SDS011;48368;53.406;6.214;2022-09-09T07:28:10;17.48;;;11.55;;
62338;SDS011;48368;53.406;6.214;2022-09-09T07:30:36;16.23;;;11.32;;
62338;SDS011;48368;53.406;6.214;2022-09-09T07:33:02;18.67;;;11.73;;
62338;SDS011;48368;53.406;6.214;2022-09-09T07:35:28;15.82;;;10.48;;
62338;SDS011;48368;53.406;6.214;2022-09-09T07:37:54;14.57;;;10.05;;
62338;SDS011;48368;53.406;6.214;2022-09-09T07:40:20;14.73;;;11.02;;
62338;SDS011;48368;53.406;6.214;2022-09-09T07:42:47;18.23;;;10.77;;
62338;SDS011;48368;53.406;6.214;2022-09-09T07:45:13;16.33;;;10.02;;
62338;SDS011;48368;53.406;6.214;2022-09-09T07:47:39;15.57;;;9.93;;
62338;SDS011;48368;53.406;6.214;2022-09-09T07:50:07;15.32;;;10.00;;
62338;SDS011;48368;53.406;6.214;2022-09-09T07:52:34;18.35;;;10.05;;
62338;SDS011;48368;53.406;6.214;2022-09-09T07:54:59;13.40;;;8.98;;
62338;SDS011;48368;53.406;6.214;2022-09-09T07:57:27;14.07;;;10.02;;
62338;SDS011;48368;53.406;6.214;2022-09-09T07:59:55;16.27;;;9.05;;
62338;SDS011;48368;53.406;6.214;2022-09-09T08:02:21;16.13;;;9.52;;
62338;SDS011;48368;53.406;6.214;2022-09-09T08:04:48;13.98;;;9.65;;
62338;SDS011;48368;53.406;6.214;2022-09-09T08:07:14;11.27;;;8.38;;
62338;SDS011;48368;53.406;6.214;2022-09-09T08:09:41;11.70;;;7.70;;
62338;SDS011;48368;53.406;6.214;2022-09-09T08:12:06;14.82;;;9.20;;
62338;SDS011;48368;53.406;6.214;2022-09-09T08:14:33;12.57;;;8.35;;
62338;SDS011;48368;53.406;6.214;2022-09-09T08:16:58;12.80;;;8.60;;
62338;SDS011;48368;53.406;6.214;2022-09-09T08:19:25;12.50;;;8.38;;
62338;SDS011;48368;53.406;6.214;2022-09-09T08:21:53;14.73;;;8.02;;
62338;SDS011;48368;53.406;6.214;2022-09-09T08:24:19;12.65;;;8.55;;
62338;SDS011;48368;53.406;6.214;2022-09-09T08:26:45;12.30;;;8.07;;
62338;SDS011;48368;53.406;6.214;2022-09-09T08:29:14;9.90;;;7.75;;
62338;SDS011;48368;53.406;6.214;2022-09-09T08:31:44;11.32;;;7.35;;
62338;SDS011;48368;53.406;6.214;2022-09-09T08:34:22;11.95;;;7.43;;
62338;SDS011;48368;53.406;6.214;2022-09-09T08:36:48;9.48;;;7.30;;
62338;SDS011;48368;53.406;6.214;2022-09-09T08:39:16;11.48;;;7.50;;
62338;SDS011;48368;53.406;6.214;2022-09-09T08:49:57;10.93;;;6.82;;
62338;SDS011;48368;53.406;6.214;2022-09-09T08:58:18;13.35;;;7.18;;
62338;SDS011;48368;53.406;6.214;2022-09-09T09:09:02;9.30;;;6.28;;
62338;SDS011;48368;53.406;6.214;2022-09-09T09:11:53;8.98;;;6.43;;
62338;SDS011;48368;53.406;6.214;2022-09-09T09:14:26;9.02;;;6.45;;
62338;SDS011;48368;53.406;6.214;2022-09-09T09:19:31;9.02;;;6.10;;
62338;SDS011;48368;53.406;6.214;2022-09-09T09:27:12;14.25;;;5.70;;
62338;SDS011;48368;53.406;6.214;2022-09-09T09:29:39;10.87;;;5.27;;
62338;SDS011;48368;53.406;6.214;2022-09-09T09:32:08;10.43;;;5.78;;
62338;SDS011;48368;53.406;6.214;2022-09-09T09:34:39;9.73;;;5.88;;
62338;SDS011;48368;53.406;6.214;2022-09-09T09:37:17;7.82;;;5.50;;
62338;SDS011;48368;53.406;6.214;2022-09-09T09:39:52;9.43;;;6.28;;
62338;SDS011;48368;53.406;6.214;2022-09-09T09:42:18;11.02;;;6.15;;
62338;SDS011;48368;53.406;6.214;2022-09-09T09:44:44;12.57;;;5.82;;
62338;SDS011;48368;53.406;6.214;2022-09-09T09:47:17;10.82;;;6.50;;
62338;SDS011;48368;53.406;6.214;2022-09-09T09:49:52;13.65;;;6.43;;
62338;SDS011;48368;53.406;6.214;2022-09-09T09:52:21;11.68;;;5.72;;
62338;SDS011;48368;53.406;6.214;2022-09-09T09:57:18;10.45;;;5.50;;
62338;SDS011;48368;53.406;6.214;2022-09-09T10:00:00;9.45;;;5.95;;
62338;SDS011;48368;53.406;6.214;2022-09-09T10:02:31;7.22;;;5.38;;
62338;SDS011;48368;53.406;6.214;2022-09-09T10:21:39;8.55;;;3.63;;
62338;SDS011;48368;53.406;6.214;2022-09-09T10:38:02;5.95;;;3.25;;
62338;SDS011;48368;53.406;6.214;2022-09-09T10:43:32;6.43;;;2.60;;
62338;SDS011;48368;53.406;6.214;2022-09-09T10:51:40;9.23;;;3.05;;
62338;SDS011;48368;53.406;6.214;2022-09-09T10:59:58;5.50;;;2.90;;
62338;SDS011;48368;53.406;6.214;2022-09-09T11:02:32;8.52;;;3.15;;
62338;SDS011;48368;53.406;6.214;2022-09-09T11:05:16;7.55;;;3.22;;
62338;SDS011;48368;53.406;6.214;2022-09-09T11:07:47;6.10;;;2.97;;
62338;SDS011;48368;53.406;6.214;2022-09-09T11:13:02;7.75;;;2.50;;
62338;SDS011;48368;53.406;6.214;2022-09-09T11:15:41;4.43;;;1.80;;
62338;SDS011;48368;53.406;6.214;2022-09-09T11:18:13;6.70;;;1.90;;
62338;SDS011;48368;53.406;6.214;2022-09-09T11:20:43;7.53;;;2.27;;
62338;SDS011;48368;53.406;6.214;2022-09-09T11:23:13;9.02;;;2.13;;
62338;SDS011;48368;53.406;6.214;2022-09-09T11:25:56;7.00;;;2.05;;
62338;SDS011;48368;53.406;6.214;2022-09-09T11:37:12;8.30;;;1.98;;
62338;SDS011;48368;53.406;6.214;2022-09-09T11:46:00;6.20;;;1.90;;
62338;SDS011;48368;53.406;6.214;2022-09-09T12:00:33;7.60;;;2.38;;
62338;SDS011;48368;53.406;6.214;2022-09-09T12:02:59;8.60;;;2.30;;
62338;SDS011;48368;53.406;6.214;2022-09-09T12:05:34;9.10;;;2.70;;
62338;SDS011;48368;53.406;6.214;2022-09-09T12:10:52;5.93;;;2.05;;
62338;SDS011;48368;53.406;6.214;2022-09-09T12:13:23;7.78;;;2.50;;
62338;SDS011;48368;53.406;6.214;2022-09-09T12:15:55;6.78;;;2.08;;
62338;SDS011;48368;53.406;6.214;2022-09-09T12:18:23;5.88;;;1.90;;
62338;SDS011;48368;53.406;6.214;2022-09-09T12:24:11;7.30;;;2.03;;
62338;SDS011;48368;53.406;6.214;2022-09-09T12:26:47;7.38;;;1.63;;
62338;SDS011;48368;53.406;6.214;2022-09-09T12:29:27;6.63;;;1.48;;
62338;SDS011;48368;53.406;6.214;2022-09-09T12:32:02;4.90;;;1.70;;
62338;SDS011;48368;53.406;6.214;2022-09-09T12:34:40;4.78;;;1.67;;
62338;SDS011;48368;53.406;6.214;2022-09-09T12:39:59;4.47;;;1.70;;
62338;SDS011;48368;53.406;6.214;2022-09-09T12:42:27;8.00;;;1.90;;
62338;SDS011;48368;53.406;6.214;2022-09-09T12:44:54;6.68;;;2.40;;
62338;SDS011;48368;53.406;6.214;2022-09-09T12:47:29;6.63;;;2.00;;
62338;SDS011;48368;53.406;6.214;2022-09-09T12:50:24;5.68;;;1.92;;
62338;SDS011;48368;53.406;6.214;2022-09-09T12:52:57;7.03;;;2.22;;
62338;SDS011;48368;53.406;6.214;2022-09-09T12:55:31;7.10;;;2.22;;
62338;SDS011;48368;53.406;6.214;2022-09-09T12:58:03;4.85;;;2.15;;
62338;SDS011;48368;53.406;6.214;2022-09-09T13:00:31;6.18;;;1.80;;
62338;SDS011;48368;53.406;6.214;2022-09-09T13:02:59;6.18;;;1.70;;
62338;SDS011;48368;53.406;6.214;2022-09-09T13:05:27;6.10;;;2.10;;
62338;SDS011;48368;53.406;6.214;2022-09-09T13:08:02;7.35;;;1.80;;
62338;SDS011;48368;53.406;6.214;2022-09-09T13:10:30;6.78;;;1.65;;
62338;SDS011;48368;53.406;6.214;2022-09-09T13:12:59;4.80;;;1.70;;
62338;SDS011;48368;53.406;6.214;2022-09-09T13:15:26;5.32;;;2.17;;
62338;SDS011;48368;53.406;6.214;2022-09-09T13:17:58;5.25;;;1.73;;
62338;SDS011;48368;53.406;6.214;2022-09-09T13:20:30;8.20;;;2.10;;
62338;SDS011;48368;53.406;6.214;2022-09-09T13:22:56;5.15;;;1.83;;
62338;SDS011;48368;53.406;6.214;2022-09-09T13:27:59;4.88;;;1.58;;
62338;SDS011;48368;53.406;6.214;2022-09-09T13:30:34;6.00;;;1.40;;
62338;SDS011;48368;53.406;6.214;2022-09-09T13:35:35;6.07;;;1.63;;
62338;SDS011;48368;53.406;6.214;2022-09-09T13:38:12;7.53;;;1.75;;
62338;SDS011;48368;53.406;6.214;2022-09-09T13:40:39;6.32;;;1.55;;
62338;SDS011;48368;53.406;6.214;2022-09-09T13:43:05;7.68;;;1.60;;
62338;SDS011;48368;53.406;6.214;2022-09-09T13:45:51;6.05;;;1.92;;
62338;SDS011;48368;53.406;6.214;2022-09-09T13:48:19;8.45;;;1.70;;
62338;SDS011;48368;53.406;6.214;2022-09-09T13:50:53;6.00;;;1.58;;
62338;SDS011;48368;53.406;6.214;2022-09-09T13:53:20;5.97;;;1.77;;
62338;SDS011;48368;53.406;6.214;2022-09-09T13:55:45;7.20;;;1.70;;
62338;SDS011;48368;53.406;6.214;2022-09-09T13:58:15;4.05;;;1.52;;
62338;SDS011;48368;53.406;6.214;2022-09-09T14:00:43;6.60;;;1.58;;
62338;SDS011;48368;53.406;6.214;2022-09-09T14:03:09;4.88;;;1.50;;
62338;SDS011;48368;53.406;6.214;2022-09-09T14:05:35;5.93;;;1.60;;
62338;SDS011;48368;53.406;6.214;2022-09-09T14:08:06;4.45;;;1.50;;
62338;SDS011;48368;53.406;6.214;2022-09-09T14:10:33;4.90;;;1.73;;
62338;SDS011;48368;53.406;6.214;2022-09-09T14:13:02;6.00;;;1.83;;
62338;SDS011;48368;53.406;6.214;2022-09-09T14:15:28;7.97;;;1.92;;
62338;SDS011;48368;53.406;6.214;2022-09-09T14:17:54;16.23;;;2.40;;
62338;SDS011;48368;53.406;6.214;2022-09-09T14:20:19;7.25;;;2.25;;
62338;SDS011;48368;53.406;6.214;2022-09-09T14:22:45;9.10;;;2.00;;
62338;SDS011;48368;53.406;6.214;2022-09-09T14:25:11;9.38;;;1.88;;
62338;SDS011;48368;53.406;6.214;2022-09-09T14:27:40;6.65;;;1.77;;
62338;SDS011;48368;53.406;6.214;2022-09-09T14:30:07;8.07;;;2.08;;
62338;SDS011;48368;53.406;6.214;2022-09-09T14:32:33;5.88;;;2.00;;
62338;SDS011;48368;53.406;6.214;2022-09-09T14:34:59;5.55;;;1.95;;
62338;SDS011;48368;53.406;6.214;2022-09-09T14:37:26;6.15;;;2.70;;
62338;SDS011;48368;53.406;6.214;2022-09-09T14:39:52;5.90;;;2.00;;
62338;SDS011;48368;53.406;6.214;2022-09-09T14:42:18;7.25;;;1.73;;
62338;SDS011;48368;53.406;6.214;2022-09-09T14:44:44;6.55;;;2.38;;
62338;SDS011;48368;53.406;6.214;2022-09-09T14:47:10;6.57;;;1.80;;
62338;SDS011;48368;53.406;6.214;2022-09-09T14:49:36;3.80;;;1.50;;
62338;SDS011;48368;53.406;6.214;2022-09-09T14:52:02;2.90;;;1.15;;
62338;SDS011;48368;53.406;6.214;2022-09-09T14:54:29;3.42;;;1.20;;
62338;SDS011;48368;53.406;6.214;2022-09-09T14:56:55;2.97;;;1.30;;
62338;SDS011;48368;53.406;6.214;2022-09-09T14:59:21;3.45;;;1.30;;
62338;SDS011;48368;53.406;6.214;2022-09-09T15:01:47;4.18;;;1.40;;
62338;SDS011;48368;53.406;6.214;2022-09-09T15:04:13;4.03;;;1.35;;
62338;SDS011;48368;53.406;6.214;2022-09-09T15:06:41;3.92;;;1.20;;
62338;SDS011;48368;53.406;6.214;2022-09-09T15:09:09;3.60;;;1.60;;
62338;SDS011;48368;53.406;6.214;2022-09-09T15:11:36;4.68;;;1.80;;
62338;SDS011;48368;53.406;6.214;2022-09-09T15:14:03;5.38;;;1.90;;
62338;SDS011;48368;53.406;6.214;2022-09-09T15:16:29;3.67;;;1.58;;
62338;SDS011;48368;53.406;6.214;2022-09-09T15:18:57;5.40;;;1.88;;
62338;SDS011;48368;53.406;6.214;2022-09-09T15:21:24;5.57;;;1.70;;
62338;SDS011;48368;53.406;6.214;2022-09-09T15:23:52;5.80;;;1.63;;
62338;SDS011;48368;53.406;6.214;2022-09-09T15:26:18;5.28;;;1.67;;
62338;SDS011;48368;53.406;6.214;2022-09-09T15:28:45;8.35;;;1.90;;
62338;SDS011;48368;53.406;6.214;2022-09-09T15:33:39;5.22;;;1.27;;
62338;SDS011;48368;53.406;6.214;2022-09-09T15:36:12;1.75;;;0.90;;
62338;SDS011;48368;53.406;6.214;2022-09-09T15:38:43;2.88;;;1.00;;
62338;SDS011;48368;53.406;6.214;2022-09-09T15:41:09;4.07;;;1.00;;
62338;SDS011;48368;53.406;6.214;2022-09-09T15:43:35;2.17;;;0.90;;
62338;SDS011;48368;53.406;6.214;2022-09-09T15:46:05;1.50;;;0.73;;
62338;SDS011;48368;53.406;6.214;2022-09-09T15:48:49;3.67;;;0.85;;
62338;SDS011;48368;53.406;6.214;2022-09-09T15:51:15;3.67;;;0.80;;
62338;SDS011;48368;53.406;6.214;2022-09-09T15:53:41;2.28;;;1.13;;
62338;SDS011;48368;53.406;6.214;2022-09-09T15:56:07;3.25;;;1.40;;
62338;SDS011;48368;53.406;6.214;2022-09-09T15:58:34;4.72;;;1.40;;
62338;SDS011;48368;53.406;6.214;2022-09-09T16:01:07;6.38;;;1.67;;
62338;SDS011;48368;53.406;6.214;2022-09-09T16:03:37;4.95;;;1.50;;
62338;SDS011;48368;53.406;6.214;2022-09-09T16:06:04;3.58;;;1.40;;
62338;SDS011;48368;53.406;6.214;2022-09-09T16:08:34;7.75;;;1.98;;
62338;SDS011;48368;53.406;6.214;2022-09-09T16:11:05;5.45;;;1.60;;
62338;SDS011;48368;53.406;6.214;2022-09-09T16:13:32;3.42;;;1.50;;
62338;SDS011;48368;53.406;6.214;2022-09-09T16:15:59;3.35;;;1.58;;
62338;SDS011;48368;53.406;6.214;2022-09-09T16:18:24;6.43;;;2.10;;
62338;SDS011;48368;53.406;6.214;2022-09-09T16:20:54;5.72;;;1.92;;
62338;SDS011;48368;53.406;6.214;2022-09-09T16:23:20;4.32;;;1.13;;
62338;SDS011;48368;53.406;6.214;2022-09-09T16:25:55;4.47;;;1.10;;
62338;SDS011;48368;53.406;6.214;2022-09-09T16:28:20;2.25;;;0.93;;
62338;SDS011;48368;53.406;6.214;2022-09-09T16:30:47;2.95;;;1.33;;
62338;SDS011;48368;53.406;6.214;2022-09-09T16:33:13;3.60;;;1.15;;
62338;SDS011;48368;53.406;6.214;2022-09-09T16:35:41;2.17;;;1.10;;
62338;SDS011;48368;53.406;6.214;2022-09-09T16:38:07;2.80;;;1.60;;
62338;SDS011;48368;53.406;6.214;2022-09-09T16:40:39;3.65;;;1.50;;
62338;SDS011;48368;53.406;6.214;2022-09-09T16:43:06;3.38;;;1.50;;
62338;SDS011;48368;53.406;6.214;2022-09-09T16:45:32;2.20;;;1.50;;
62338;SDS011;48368;53.406;6.214;2022-09-09T16:48:01;3.72;;;1.77;;
62338;SDS011;48368;53.406;6.214;2022-09-09T16:50:27;4.38;;;2.03;;
62338;SDS011;48368;53.406;6.214;2022-09-09T16:52:52;4.65;;;1.50;;
62338;SDS011;48368;53.406;6.214;2022-09-09T16:55:21;2.97;;;1.25;;
62338;SDS011;48368;53.406;6.214;2022-09-09T16:57:46;1.35;;;0.93;;
62338;SDS011;48368;53.406;6.214;2022-09-09T17:00:15;2.55;;;1.33;;
62338;SDS011;48368;53.406;6.214;2022-09-09T17:02:44;3.15;;;1.60;;
62338;SDS011;48368;53.406;6.214;2022-09-09T17:05:10;2.58;;;1.25;;
62338;SDS011;48368;53.406;6.214;2022-09-09T17:07:37;3.25;;;1.08;;
62338;SDS011;48368;53.406;6.214;2022-09-09T17:10:06;2.88;;;1.13;;
62338;SDS011;48368;53.406;6.214;2022-09-09T17:12:32;3.22;;;1.15;;
62338;SDS011;48368;53.406;6.214;2022-09-09T17:15:00;2.25;;;1.10;;
62338;SDS011;48368;53.406;6.214;2022-09-09T17:17:28;2.03;;;1.10;;
62338;SDS011;48368;53.406;6.214;2022-09-09T17:19:53;2.10;;;1.20;;
62338;SDS011;48368;53.406;6.214;2022-09-09T17:22:19;2.60;;;1.20;;
62338;SDS011;48368;53.406;6.214;2022-09-09T17:24:46;2.10;;;1.10;;